Time;durP1;ratioP1;P1;durP2;ratioP2;P2;SDS_P1;SDS_P2;PMS_P1;PMS_P2;Temp;Humidity;BMP_temperature;BMP_pressure;BME280_temperature;BME280_humidity;BME280_pressure;Samples;Min_cycle;Max_cycle;Signal;HPM_P1;HPM_P2
2024/02/04 00:02:25;;;;;;;0.98;0.90;;;6.50;99.90;;;;;;6056232;23;20030;-77
2024/02/04 00:05:13;;;;;;;1.00;1.00;;;6.60;99.90;;;;;;6056029;23;20580;-77
2024/02/04 00:08:02;;;;;;;0.90;0.90;;;6.60;99.90;;;;;;6033839;23;20067;-79
2024/02/04 00:10:49;;;;;;;1.02;1.00;;;6.60;99.90;;;;;;6035802;23;20234;-76
2024/02/04 00:13:36;;;;;;;1.20;1.10;;;6.60;99.90;;;;;;6056211;23;20023;-79
2024/02/04 00:16:24;;;;;;;1.60;1.17;;;6.60;99.90;;;;;;6067381;23;20223;-77
2024/02/04 00:19:13;;;;;;;1.00;0.90;;;6.60;99.90;;;;;;6078809;23;20050;-78
2024/02/04 00:22:01;;;;;;;0.85;0.85;;;6.60;99.90;;;;;;6075366;23;20030;-80
2024/02/04 00:24:49;;;;;;;0.90;0.90;;;6.60;99.90;;;;;;6055366;23;20189;-77
2024/02/04 00:27:39;;;;;;;2.72;1.00;;;6.50;99.90;;;;;;6033218;23;20081;-78
2024/02/04 00:30:26;;;;;;;1.10;1.00;;;6.50;99.90;;;;;;6060347;23;20035;-76
2024/02/04 00:33:16;;;;;;;0.90;0.90;;;6.50;99.90;;;;;;6045531;23;20027;-77
2024/02/04 00:36:05;;;;;;;1.35;0.90;;;6.50;99.90;;;;;;6056230;23;20031;-76
2024/02/04 00:38:54;;;;;;;0.90;0.90;;;6.50;99.90;;;;;;6053395;23;20054;-77
2024/02/04 00:41:42;;;;;;;1.35;1.10;;;6.40;99.90;;;;;;6032282;23;20037;-77
2024/02/04 00:44:29;;;;;;;1.10;1.00;;;6.40;99.90;;;;;;6033111;23;20042;-75
2024/02/04 00:47:16;;;;;;;1.00;1.00;;;6.30;99.90;;;;;;6053011;23;20023;-78
2024/02/04 00:50:07;;;;;;;1.10;1.00;;;6.30;99.90;;;;;;6032397;23;20361;-78
2024/02/04 00:52:55;;;;;;;1.00;1.00;;;6.20;99.90;;;;;;6056090;23;20066;-79
2024/02/04 00:55:43;;;;;;;1.45;1.35;;;6.20;99.90;;;;;;6057008;23;20027;-78
2024/02/04 00:58:30;;;;;;;1.15;1.10;;;6.20;99.90;;;;;;6052639;23;20102;-79
2024/02/04 01:01:19;;;;;;;1.45;1.35;;;6.20;99.90;;;;;;6052745;23;20033;-76
2024/02/04 01:04:08;;;;;;;1.30;1.20;;;6.10;99.90;;;;;;6032744;23;20911;-79
2024/02/04 01:06:56;;;;;;;1.27;1.17;;;6.10;99.90;;;;;;6040967;23;20058;-76
2024/02/04 01:09:48;;;;;;;1.45;1.35;;;6.10;99.90;;;;;;6066299;23;20038;-79
2024/02/04 01:12:37;;;;;;;1.42;1.20;;;6.10;99.90;;;;;;6030002;23;20539;-79
2024/02/04 01:15:26;;;;;;;2.20;1.30;;;6.10;99.90;;;;;;6059532;23;20033;-76
2024/02/04 01:18:14;;;;;;;1.40;1.30;;;6.10;99.90;;;;;;6063777;23;20105;-79
2024/02/04 01:21:01;;;;;;;1.15;1.15;;;6.10;99.90;;;;;;6042017;23;20026;-78
2024/02/04 01:23:51;;;;;;;1.40;1.30;;;6.10;99.90;;;;;;6053990;23;20118;-78
2024/02/04 01:26:39;;;;;;;1.40;1.30;;;6.10;99.90;;;;;;6033745;23;20031;-77
2024/02/04 01:29:26;;;;;;;1.40;1.30;;;6.10;99.90;;;;;;6031902;23;20030;-76
2024/02/04 01:32:22;;;;;;;1.40;1.30;;;6.00;99.90;;;;;;6054062;23;20433;-77
2024/02/04 01:35:09;;;;;;;1.50;1.40;;;6.00;99.90;;;;;;6052089;23;20027;-78
2024/02/04 01:37:58;;;;;;;1.60;1.50;;;5.90;99.90;;;;;;6050690;23;20030;-78
2024/02/04 01:40:51;;;;;;;1.52;1.38;;;5.90;99.90;;;;;;6054150;23;20030;-77
2024/02/04 01:43:38;;;;;;;1.58;1.48;;;5.90;99.90;;;;;;6054227;23;20030;-75
2024/02/04 01:46:26;;;;;;;1.75;1.60;;;5.80;99.90;;;;;;6034459;23;20117;-78
2024/02/04 01:49:14;;;;;;;1.58;1.48;;;5.80;99.90;;;;;;6076246;23;20019;-77
2024/02/04 01:52:02;;;;;;;1.60;1.50;;;5.80;99.90;;;;;;6027182;23;20033;-75
2024/02/04 01:54:54;;;;;;;2.80;1.77;;;5.80;99.90;;;;;;6065769;23;20406;-78
2024/02/04 01:57:42;;;;;;;1.98;1.50;;;5.80;99.90;;;;;;6054058;23;20027;-77
2024/02/04 02:00:30;;;;;;;1.70;1.60;;;5.90;99.90;;;;;;6033020;23;20038;-78
2024/02/04 02:03:18;;;;;;;2.00;1.80;;;5.90;99.90;;;;;;6065963;23;20081;-79
2024/02/04 02:06:06;;;;;;;2.72;2.40;;;5.80;99.90;;;;;;6065667;23;20041;-77
2024/02/04 02:08:55;;;;;;;2.33;2.03;;;5.80;99.90;;;;;;6054819;23;20034;-76
2024/02/04 02:11:51;;;;;;;3.50;1.83;;;5.80;99.90;;;;;;6052386;23;20031;-78
2024/02/04 02:14:50;;;;;;;2.03;1.83;;;5.80;99.90;;;;;;6052713;23;20038;-78
2024/02/04 02:18:01;;;;;;;7.22;2.00;;;5.80;99.90;;;;;;6033248;23;20027;-78
2024/02/04 02:21:23;;;;;;;2.00;1.42;;;5.80;99.90;;;;;;6047854;23;20037;-78
2024/02/04 02:24:25;;;;;;;2.13;1.92;;;5.80;99.90;;;;;;6053187;23;20030;-78
2024/02/04 02:27:13;;;;;;;2.00;1.80;;;5.80;99.90;;;;;;6067484;23;20067;-78
2024/02/04 02:30:00;;;;;;;2.10;1.90;;;5.80;99.90;;;;;;6057386;23;20055;-76
2024/02/04 02:32:49;;;;;;;1.50;1.40;;;5.90;99.90;;;;;;6078455;23;20026;-75
2024/02/04 02:35:38;;;;;;;1.60;1.50;;;5.90;99.90;;;;;;6070538;23;20078;-76
2024/02/04 02:38:58;;;;;;;1.92;1.80;;;5.90;99.90;;;;;;6065339;23;20319;-78
2024/02/04 02:41:51;;;;;;;2.05;1.73;;;5.90;99.90;;;;;;6041689;23;20102;-78
2024/02/04 02:44:39;;;;;;;1.35;1.30;;;5.90;99.90;;;;;;6014721;23;20031;-76
2024/02/04 02:47:29;;;;;;;1.40;1.30;;;5.90;99.90;;;;;;6053309;23;20062;-77
2024/02/04 02:50:17;;;;;;;2.33;1.75;;;5.90;99.90;;;;;;6055159;23;20049;-78
2024/02/04 02:53:05;;;;;;;2.20;1.60;;;5.90;99.90;;;;;;6014304;23;20027;-78
2024/02/04 02:55:52;;;;;;;1.70;1.60;;;5.90;99.90;;;;;;6054535;23;20027;-78
2024/02/04 02:58:41;;;;;;;2.13;1.92;;;5.90;99.90;;;;;;6054136;23;20506;-78
2024/02/04 03:01:28;;;;;;;2.15;1.63;;;5.90;99.90;;;;;;6055581;23;20172;-77
2024/02/04 03:04:16;;;;;;;1.50;1.40;;;5.90;99.90;;;;;;6053347;23;20031;-79
2024/02/04 03:07:04;;;;;;;1.88;1.77;;;5.90;99.90;;;;;;6053932;23;20101;-78
2024/02/04 03:09:54;;;;;;;1.73;1.50;;;5.90;99.90;;;;;;6053438;23;20105;-77
2024/02/04 03:12:42;;;;;;;1.42;1.33;;;5.90;99.90;;;;;;6057270;23;20027;-77
2024/02/04 03:15:29;;;;;;;1.40;1.30;;;6.00;99.90;;;;;;6065595;23;20023;-78
2024/02/04 03:18:17;;;;;;;1.30;1.20;;;6.00;99.90;;;;;;6063461;23;20504;-76
2024/02/04 03:21:12;;;;;;;1.60;1.50;;;6.00;99.90;;;;;;6053285;23;20063;-76
2024/02/04 03:23:59;;;;;;;1.38;1.27;;;6.00;99.90;;;;;;6033846;23;20031;-77
2024/02/04 03:26:47;;;;;;;1.20;1.10;;;6.00;99.90;;;;;;6055780;23;20034;-76
2024/02/04 03:29:35;;;;;;;1.95;1.20;;;6.00;99.90;;;;;;6056631;23;20041;-76
2024/02/04 03:32:24;;;;;;;1.10;1.10;;;6.00;99.90;;;;;;6057212;23;20030;-76
2024/02/04 03:35:13;;;;;;;2.55;1.33;;;6.00;99.90;;;;;;6037862;23;20113;-77
2024/02/04 03:38:00;;;;;;;1.30;1.20;;;6.00;99.90;;;;;;6064361;23;20027;-76
2024/02/04 03:40:49;;;;;;;1.35;1.25;;;6.00;99.90;;;;;;6049151;23;20790;-76
2024/02/04 03:43:38;;;;;;;1.52;1.38;;;6.10;99.90;;;;;;6066501;23;20067;-76
2024/02/04 03:46:27;;;;;;;1.48;1.38;;;6.10;99.90;;;;;;6057346;23;20038;-76
2024/02/04 03:49:17;;;;;;;1.35;1.25;;;6.10;99.90;;;;;;6057144;23;20030;-78
2024/02/04 03:52:05;;;;;;;1.67;1.40;;;6.10;99.90;;;;;;6056801;23;20512;-78
2024/02/04 03:54:53;;;;;;;1.05;1.05;;;6.10;99.90;;;;;;6061480;23;20110;-78
2024/02/04 03:57:41;;;;;;;2.17;1.23;;;6.10;99.90;;;;;;6046896;23;20481;-79
2024/02/04 04:00:29;;;;;;;2.03;1.40;;;6.10;99.90;;;;;;6022164;23;20041;-78
2024/02/04 04:03:18;;;;;;;1.40;1.30;;;6.10;99.90;;;;;;6054511;23;20027;-79
2024/02/04 04:06:07;;;;;;;1.55;1.45;;;6.00;99.90;;;;;;6069662;23;20078;-77
2024/02/04 04:08:58;;;;;;;1.40;1.30;;;6.00;99.90;;;;;;6063160;23;20041;-79
2024/02/04 04:11:46;;;;;;;2.47;1.40;;;6.00;99.90;;;;;;6054484;23;20027;-79
2024/02/04 04:14:35;;;;;;;2.00;1.48;;;6.00;99.90;;;;;;6057102;23;20030;-79
2024/02/04 04:17:22;;;;;;;1.35;1.20;;;5.90;99.90;;;;;;6057171;23;20041;-78
2024/02/04 04:20:11;;;;;;;1.80;1.30;;;5.90;99.90;;;;;;6062411;23;20031;-78
2024/02/04 04:22:58;;;;;;;1.10;1.10;;;5.90;99.90;;;;;;6073738;23;20034;-80
2024/02/04 04:25:46;;;;;;;1.50;1.40;;;5.90;99.90;;;;;;6075171;23;20027;-79
2024/02/04 04:28:34;;;;;;;1.90;1.38;;;5.90;99.90;;;;;;6075562;23;20027;-76
2024/02/04 04:31:22;;;;;;;1.00;1.00;;;5.90;99.90;;;;;;6076552;23;20029;-76
2024/02/04 04:34:09;;;;;;;1.20;1.10;;;5.90;99.90;;;;;;6072716;23;20307;-78
2024/02/04 04:36:56;;;;;;;1.23;1.13;;;5.90;99.90;;;;;;6057793;23;20054;-80
2024/02/04 04:39:44;;;;;;;1.73;1.08;;;5.90;99.90;;;;;;6016900;23;20484;-79
2024/02/04 04:42:32;;;;;;;1.10;1.00;;;5.90;99.90;;;;;;6061909;23;20035;-79
2024/02/04 04:45:21;;;;;;;1.20;1.10;;;5.90;99.90;;;;;;6067741;23;20133;-77
2024/02/04 04:48:10;;;;;;;1.13;1.10;;;5.80;99.90;;;;;;6059146;23;20038;-80
2024/02/04 04:50:58;;;;;;;0.90;0.90;;;5.80;99.90;;;;;;6058409;23;20377;-78
2024/02/04 04:53:46;;;;;;;1.33;1.10;;;5.80;99.90;;;;;;6062818;23;20026;-79
2024/02/04 04:56:42;;;;;;;2.22;1.15;;;5.80;99.90;;;;;;6069514;23;20023;-79
2024/02/04 04:59:32;;;;;;;1.00;1.00;;;5.80;99.90;;;;;;6060902;23;20131;-78
2024/02/04 05:02:20;;;;;;;1.42;1.02;;;5.80;99.90;;;;;;6053293;23;20034;-78
2024/02/04 05:05:08;;;;;;;1.10;1.00;;;5.80;99.90;;;;;;6053574;23;20034;-77
2024/02/04 05:07:57;;;;;;;1.25;1.00;;;5.80;99.90;;;;;;6034065;23;20664;-79
2024/02/04 05:10:47;;;;;;;1.38;1.27;;;5.70;99.90;;;;;;6053190;23;20114;-77
2024/02/04 05:13:38;;;;;;;1.10;0.90;;;5.70;99.90;;;;;;6055847;23;20394;-78
2024/02/04 05:16:28;;;;;;;1.20;1.00;;;5.70;99.90;;;;;;6054733;23;20082;-77
2024/02/04 05:19:19;;;;;;;1.17;1.10;;;5.70;99.90;;;;;;6052980;23;20026;-77
2024/02/04 05:22:06;;;;;;;1.10;1.10;;;5.60;99.90;;;;;;6054120;23;20062;-77
2024/02/04 05:24:56;;;;;;;1.75;1.20;;;5.60;99.90;;;;;;6057679;23;20034;-80
2024/02/04 05:27:44;;;;;;;1.17;1.08;;;5.60;99.90;;;;;;6039642;23;20034;-77
2024/02/04 05:30:31;;;;;;;1.38;1.20;;;5.60;99.90;;;;;;6063564;23;20027;-78
2024/02/04 05:33:19;;;;;;;2.28;1.38;;;5.60;99.90;;;;;;6060342;23;20342;-77
2024/02/04 05:36:07;;;;;;;1.35;1.25;;;5.70;99.90;;;;;;6033345;23;20106;-79
2024/02/04 05:38:55;;;;;;;1.20;1.10;;;5.70;99.90;;;;;;6053203;23;20027;-77
2024/02/04 05:41:43;;;;;;;1.20;1.10;;;5.70;99.90;;;;;;6055095;23;20054;-78
2024/02/04 05:44:33;;;;;;;0.80;0.80;;;5.70;99.90;;;;;;6034598;23;20037;-79
2024/02/04 05:47:20;;;;;;;1.50;0.95;;;5.70;99.90;;;;;;6054472;23;20062;-78
2024/02/04 05:50:09;;;;;;;0.80;0.80;;;5.70;99.90;;;;;;6053517;23;20095;-77
2024/02/04 05:52:58;;;;;;;0.93;0.93;;;5.70;99.90;;;;;;6054110;23;20066;-77
2024/02/04 05:55:46;;;;;;;1.52;0.90;;;5.70;99.90;;;;;;6015769;23;20034;-78
2024/02/04 05:58:34;;;;;;;2.50;0.95;;;5.70;99.90;;;;;;6056295;23;20034;-77
2024/02/04 06:01:22;;;;;;;0.98;0.98;;;5.70;99.90;;;;;;6056395;23;20649;-77
2024/02/04 06:04:10;;;;;;;0.90;0.90;;;5.70;99.90;;;;;;6054540;23;20038;-79
2024/02/04 06:06:57;;;;;;;1.67;1.00;;;5.70;99.90;;;;;;6042061;23;20027;-75
2024/02/04 06:09:46;;;;;;;1.05;0.90;;;5.70;99.90;;;;;;6045761;23;20410;-79
2024/02/04 06:12:33;;;;;;;1.23;1.13;;;5.70;99.90;;;;;;6069820;23;20037;-77
2024/02/04 06:15:25;;;;;;;1.10;1.10;;;5.70;99.90;;;;;;6058050;23;20022;-78
2024/02/04 06:18:12;;;;;;;0.80;0.80;;;5.70;99.90;;;;;;6060527;23;20062;-76
2024/02/04 06:21:01;;;;;;;1.15;1.13;;;5.60;99.90;;;;;;6024106;23;20027;-78
2024/02/04 06:23:49;;;;;;;1.38;1.10;;;5.70;99.90;;;;;;6058769;23;20470;-80
2024/02/04 06:26:39;;;;;;;1.73;1.10;;;5.70;99.90;;;;;;6065248;23;20034;-79
2024/02/04 06:29:26;;;;;;;1.38;1.00;;;5.60;99.90;;;;;;6035032;23;20026;-78
2024/02/04 06:32:20;;;;;;;1.05;1.05;;;5.70;99.90;;;;;;6033171;23;20027;-77
2024/02/04 06:35:10;;;;;;;1.30;1.20;;;5.70;99.90;;;;;;6012326;23;20547;-78
2024/02/04 06:37:59;;;;;;;1.10;1.05;;;5.70;99.90;;;;;;6052937;23;20029;-78
2024/02/04 06:40:50;;;;;;;1.25;1.17;;;5.70;99.90;;;;;;6053561;23;20076;-79
2024/02/04 06:43:38;;;;;;;0.90;0.90;;;5.70;99.90;;;;;;6054282;23;20509;-78
2024/02/04 06:46:26;;;;;;;1.17;1.10;;;5.70;99.90;;;;;;6033808;23;20109;-77
2024/02/04 06:49:18;;;;;;;1.30;1.10;;;5.70;99.90;;;;;;6054719;23;20027;-77
2024/02/04 06:52:06;;;;;;;1.00;1.00;;;5.70;99.90;;;;;;6034976;23;20027;-78
2024/02/04 06:54:53;;;;;;;1.42;1.10;;;5.70;99.90;;;;;;6062453;23;20026;-77
2024/02/04 06:57:41;;;;;;;1.30;1.20;;;5.70;99.90;;;;;;6066362;23;20084;-76
2024/02/04 07:00:28;;;;;;;1.00;1.00;;;5.70;99.90;;;;;;6053203;23;20038;-76
2024/02/04 07:03:16;;;;;;;1.80;1.13;;;5.70;99.90;;;;;;6067357;23;20019;-75
2024/02/04 07:06:04;;;;;;;1.00;1.00;;;5.70;99.90;;;;;;6062796;23;20034;-76
2024/02/04 07:08:52;;;;;;;1.80;0.90;;;5.70;99.90;;;;;;6059652;23;20027;-75
2024/02/04 07:11:40;;;;;;;0.98;0.98;;;5.70;99.90;;;;;;6054820;23;20050;-76
2024/02/04 07:14:33;;;;;;;0.93;0.90;;;5.80;99.90;;;;;;6039421;23;20019;-78
2024/02/04 07:17:21;;;;;;;1.20;1.10;;;5.70;99.90;;;;;;6068426;23;20026;-75
2024/02/04 07:20:11;;;;;;;1.20;1.10;;;5.70;99.90;;;;;;6054997;23;20023;-77
2024/02/04 07:23:00;;;;;;;1.33;1.23;;;5.70;99.90;;;;;;6054627;23;20374;-77
2024/02/04 07:25:48;;;;;;;1.13;1.05;;;5.70;99.90;;;;;;6034583;23;20463;-76
2024/02/04 07:28:37;;;;;;;1.35;1.23;;;5.70;99.90;;;;;;6054176;23;20031;-76
2024/02/04 07:31:24;;;;;;;1.42;1.00;;;5.70;99.90;;;;;;6053578;23;20425;-77
2024/02/04 07:34:12;;;;;;;1.50;1.40;;;5.70;99.90;;;;;;6053229;23;20541;-77
2024/02/04 07:37:00;;;;;;;1.58;1.42;;;5.80;99.90;;;;;;6066377;23;20027;-78
2024/02/04 07:39:47;;;;;;;1.35;1.25;;;5.80;99.90;;;;;;6058790;23;20090;-77
2024/02/04 07:42:36;;;;;;;3.88;1.50;;;5.90;99.90;;;;;;6062995;23;20059;-77
2024/02/04 07:45:24;;;;;;;1.30;1.30;;;6.00;99.90;;;;;;6074869;23;20031;-76
2024/02/04 07:48:11;;;;;;;1.55;1.33;;;6.00;99.90;;;;;;6069004;23;20031;-77
2024/02/04 07:50:59;;;;;;;1.50;1.40;;;6.10;99.90;;;;;;6042653;23;20464;-77
2024/02/04 07:53:49;;;;;;;1.67;1.40;;;6.20;99.90;;;;;;6053764;23;20031;-77
2024/02/04 07:56:41;;;;;;;1.38;1.17;;;6.20;99.90;;;;;;6034671;23;20061;-78
2024/02/04 07:59:31;;;;;;;1.33;1.23;;;6.30;99.90;;;;;;6053276;23;20023;-78
2024/02/04 08:02:19;;;;;;;1.30;1.20;;;6.30;99.90;;;;;;6052833;23;20030;-78
2024/02/04 08:05:15;;;;;;;1.27;1.15;;;6.40;99.90;;;;;;6035633;23;20078;-75
2024/02/04 08:08:05;;;;;;;1.30;1.20;;;6.40;99.90;;;;;;6052040;23;20081;-77
2024/02/04 08:11:02;;;;;;;1.35;1.25;;;6.40;99.90;;;;;;6053520;23;20027;-79
2024/02/04 08:13:51;;;;;;;1.48;1.38;;;6.50;99.90;;;;;;6052833;23;20141;-77
2024/02/04 08:16:39;;;;;;;2.83;1.65;;;6.60;99.90;;;;;;6054461;23;20184;-78
2024/02/04 08:19:28;;;;;;;2.05;1.50;;;6.60;99.90;;;;;;6055167;23;20031;-78
2024/02/04 08:22:17;;;;;;;1.67;1.50;;;6.70;77.80;;;;;;6059575;23;20027;-76
2024/02/04 08:25:05;;;;;;;2.35;1.30;;;6.70;22.30;;;;;;6056442;23;20046;-77
2024/02/04 08:27:54;;;;;;;2.45;1.10;;;6.70;1.90;;;;;;6056667;23;20034;-77
2024/02/04 08:30:46;;;;;;;2.30;1.30;;;6.60;1.00;;;;;;6061377;23;20051;-75
2024/02/04 08:33:33;;;;;;;2.75;1.20;;;6.60;1.00;;;;;;6078145;23;20026;-77
2024/02/04 08:36:25;;;;;;;1.30;1.20;;;6.60;1.00;;;;;;6044933;23;20030;-78
2024/02/04 08:39:12;;;;;;;1.35;1.25;;;6.70;1.00;;;;;;6056022;23;20027;-77
2024/02/04 08:42:01;;;;;;;0.95;0.90;;;6.80;1.00;;;;;;6056817;23;20027;-78
2024/02/04 08:44:49;;;;;;;1.25;1.00;;;6.80;1.00;;;;;;6053166;23;20026;-78
2024/02/04 08:47:37;;;;;;;1.42;1.30;;;6.90;1.00;;;;;;6051930;23;20344;-76
2024/02/04 08:50:26;;;;;;;1.13;1.02;;;6.90;1.00;;;;;;6073941;23;20031;-75
2024/02/04 08:53:15;;;;;;;1.13;1.02;;;7.00;1.00;;;;;;6077131;23;20031;-75
2024/02/04 08:56:04;;;;;;;1.15;1.00;;;7.20;1.00;;;;;;6078695;23;20048;-76
2024/02/04 08:58:52;;;;;;;2.47;1.00;;;7.30;1.00;;;;;;6056425;23;20026;-75
2024/02/04 09:01:51;;;;;;;1.02;0.80;;;7.50;99.90;;;;;;6070101;23;20029;-76
2024/02/04 09:04:40;;;;;;;1.98;1.20;;;7.50;99.90;;;;;;6061408;23;20027;-77
2024/02/04 09:07:30;;;;;;;0.70;0.70;;;7.50;99.90;;;;;;6057184;23;20022;-77
2024/02/04 09:10:21;;;;;;;0.75;0.70;;;7.40;99.90;;;;;;6055750;23;20097;-78
2024/02/04 09:13:09;;;;;;;1.70;1.20;;;7.50;99.90;;;;;;6042770;23;20122;-78
2024/02/04 09:15:56;;;;;;;0.80;0.70;;;7.60;99.90;;;;;;6059668;23;20038;-76
2024/02/04 09:18:47;;;;;;;3.28;1.65;;;7.40;99.90;;;;;;6036535;23;20117;-77
2024/02/04 09:21:35;;;;;;;3.28;1.10;;;7.50;99.90;;;;;;6064541;23;20156;-76
2024/02/04 09:24:24;;;;;;;0.98;0.98;;;7.50;99.90;;;;;;6066671;23;20030;-77
2024/02/04 09:27:12;;;;;;;1.60;0.90;;;7.60;99.90;;;;;;6060778;23;20082;-76
2024/02/04 09:29:59;;;;;;;0.93;0.63;;;7.60;99.90;;;;;;6033873;23;20102;-76
2024/02/04 09:32:47;;;;;;;0.93;0.70;;;7.60;99.90;;;;;;6034011;23;20123;-78
2024/02/04 09:35:35;;;;;;;1.20;0.60;;;7.70;99.90;;;;;;6059405;23;20482;-78
2024/02/04 09:38:25;;;;;;;0.57;0.57;;;7.80;99.90;;;;;;6034005;23;20086;-78
2024/02/04 09:41:12;;;;;;;0.52;0.52;;;8.00;99.90;;;;;;6054651;23;20023;-78
2024/02/04 09:44:03;;;;;;;0.80;0.80;;;8.30;72.50;;;;;;6034375;23;20034;-77
2024/02/04 09:46:52;;;;;;;1.42;0.60;;;8.60;24.70;;;;;;6054494;23;20031;-75
2024/02/04 09:49:39;;;;;;;1.98;0.70;;;8.90;1.00;;;;;;6055179;23;20023;-76
2024/02/04 09:52:32;;;;;;;1.27;0.75;;;9.30;1.00;;;;;;6034234;23;20046;-76
2024/02/04 09:55:24;;;;;;;0.80;0.60;;;9.80;1.00;;;;;;6070039;23;20023;-76
2024/02/04 09:58:11;;;;;;;1.05;0.50;;;10.10;1.00;;;;;;6058927;23;20066;-75
2024/02/04 10:01:00;;;;;;;1.35;0.70;;;10.00;99.90;;;;;;6062874;23;20034;-75
2024/02/04 10:03:48;;;;;;;0.50;0.50;;;9.40;99.90;;;;;;6067633;23;20083;-76
2024/02/04 10:06:43;;;;;;;1.33;0.70;;;9.10;99.90;;;;;;6073830;23;20027;-78
2024/02/04 10:09:32;;;;;;;0.50;0.50;;;9.50;99.90;;;;;;6088169;23;20435;-78
2024/02/04 10:12:20;;;;;;;0.60;0.60;;;10.40;99.90;;;;;;6062046;23;20084;-76
2024/02/04 10:15:08;;;;;;;0.75;0.57;;;10.30;99.90;;;;;;6035345;23;20097;-75
2024/02/04 10:18:05;;;;;;;0.63;0.50;;;10.70;99.90;;;;;;6069841;23;20049;-78
2024/02/04 10:20:57;;;;;;;1.05;0.50;;;10.90;99.90;;;;;;6056114;23;20026;-78
2024/02/04 10:23:46;;;;;;;1.48;0.60;;;10.90;99.90;;;;;;6067845;23;20022;-78
2024/02/04 10:26:37;;;;;;;1.08;0.60;;;11.10;99.90;;;;;;6049352;23;20479;-76
2024/02/04 10:29:26;;;;;;;1.08;0.70;;;11.20;99.90;;;;;;6075691;23;20212;-77
2024/02/04 10:32:14;;;;;;;0.40;0.40;;;11.60;99.90;;;;;;6054652;23;20041;-75
2024/02/04 10:35:08;;;;;;;0.52;0.52;;;11.30;99.90;;;;;;6078273;23;20014;-76
2024/02/04 10:37:56;;;;;;;0.50;0.50;;;10.70;99.90;;;;;;6078327;23;20038;-76
2024/02/04 10:40:47;;;;;;;0.80;0.60;;;10.40;99.90;;;;;;6048722;23;20026;-79
2024/02/04 10:43:40;;;;;;;0.65;0.65;;;10.80;99.90;;;;;;6060006;23;20082;-80
2024/02/04 10:46:30;;;;;;;0.70;0.70;;;10.60;99.90;;;;;;6040215;23;20382;-79
2024/02/04 10:49:20;;;;;;;0.68;0.68;;;10.60;99.90;;;;;;6036310;23;20118;-76
2024/02/04 10:52:08;;;;;;;1.65;0.52;;;10.30;99.90;;;;;;6059667;23;20138;-78
2024/02/04 10:54:56;;;;;;;1.95;0.77;;;9.90;99.90;;;;;;6064395;23;20556;-78
2024/02/04 10:57:44;;;;;;;1.17;0.80;;;10.50;99.90;;;;;;6053650;23;20019;-78
2024/02/04 11:00:34;;;;;;;1.58;1.10;;;11.50;99.90;;;;;;6057782;23;20054;-78
2024/02/04 11:03:27;;;;;;;1.00;0.90;;;12.80;99.90;;;;;;6046861;23;20054;-76
2024/02/04 11:06:15;;;;;;;0.40;0.40;;;12.90;99.90;;;;;;6063104;23;20046;-77
2024/02/04 11:09:06;;;;;;;0.73;0.70;;;11.70;99.90;;;;;;6033290;23;20027;-77
2024/02/04 11:11:58;;;;;;;0.65;0.65;;;10.90;99.90;;;;;;6032344;23;20026;-77
2024/02/04 11:14:52;;;;;;;0.60;0.60;;;10.70;99.90;;;;;;6065542;23;20026;-77
2024/02/04 11:18:08;;;;;;;0.50;0.50;;;10.70;99.90;;;;;;6037595;23;20155;-77
2024/02/04 11:21:29;;;;;;;1.65;0.50;;;10.60;99.90;;;;;;6041205;23;20029;-77
2024/02/04 11:24:30;;;;;;;1.48;0.50;;;11.00;99.90;;;;;;6043356;23;20030;-76
2024/02/04 11:27:18;;;;;;;0.65;0.65;;;11.60;99.90;;;;;;6042737;23;20106;-80
2024/02/04 11:30:07;;;;;;;0.60;0.60;;;12.30;99.90;;;;;;6053890;23;20027;-81
2024/02/04 11:32:55;;;;;;;0.77;0.77;;;12.90;99.90;;;;;;6032926;23;20680;-77
2024/02/04 11:35:43;;;;;;;1.95;0.60;;;13.60;99.90;;;;;;6054107;23;20026;-77
2024/02/04 11:38:35;;;;;;;0.40;0.40;;;14.60;99.90;;;;;;6034173;23;20041;-77
2024/02/04 11:41:24;;;;;;;2.28;0.88;;;15.20;99.90;;;;;;6053651;23;20051;-77
2024/02/04 11:44:12;;;;;;;0.50;0.32;;;15.30;99.90;;;;;;6053445;23;20023;-77
2024/02/04 11:47:00;;;;;;;1.95;0.50;;;15.70;94.50;;;;;;6054405;23;20035;-77
2024/02/04 11:49:57;;;;;;;1.02;0.45;;;15.80;76.90;;;;;;6053888;23;20031;-77
2024/02/04 11:52:47;;;;;;;1.65;0.40;;;15.60;65.70;;;;;;6055945;23;20102;-78
2024/02/04 11:55:36;;;;;;;1.05;0.40;;;16.00;57.70;;;;;;6055934;23;20034;-79
2024/02/04 11:58:33;;;;;;;0.40;0.40;;;16.00;45.60;;;;;;6055029;23;20033;-78
2024/02/04 12:01:23;;;;;;;0.28;0.28;;;15.60;37.20;;;;;;6055341;23;20031;-77
2024/02/04 12:04:15;;;;;;;4.38;1.90;;;15.20;36.20;;;;;;6056217;23;20106;-77
2024/02/04 12:07:03;;;;;;;0.95;0.40;;;14.60;41.60;;;;;;6033954;23;20030;-77
2024/02/04 12:09:52;;;;;;;0.90;0.70;;;14.50;46.60;;;;;;6040739;23;20038;-76
2024/02/04 12:12:40;;;;;;;1.55;0.60;;;13.40;50.30;;;;;;6045851;23;20090;-79
2024/02/04 12:15:30;;;;;;;0.50;0.50;;;13.10;58.50;;;;;;6063343;23;20035;-79
2024/02/04 12:18:19;;;;;;;5.85;1.25;;;12.30;72.40;;;;;;6044851;23;20105;-76
2024/02/04 12:21:07;;;;;;;1.20;0.82;;;12.40;93.00;;;;;;6066427;23;20027;-77
2024/02/04 12:23:55;;;;;;;0.60;0.60;;;13.20;93.80;;;;;;6067690;23;20541;-77
2024/02/04 12:26:45;;;;;;;1.08;0.68;;;13.50;86.50;;;;;;6056908;23;20041;-78
2024/02/04 12:29:32;;;;;;;1.38;0.70;;;13.70;80.80;;;;;;6034468;23;20485;-77
2024/02/04 12:32:20;;;;;;;2.30;0.80;;;14.10;71.00;;;;;;6054155;23;20031;-78
2024/02/04 12:35:09;;;;;;;0.57;0.55;;;14.50;56.80;;;;;;6054648;23;20031;-78
2024/02/04 12:37:58;;;;;;;0.40;0.40;;;14.20;50.50;;;;;;6035194;23;20018;-78
2024/02/04 12:40:47;;;;;;;0.40;0.40;;;13.00;55.00;;;;;;6039641;23;20053;-79
2024/02/04 12:43:36;;;;;;;1.30;0.60;;;12.60;65.80;;;;;;6058921;23;20066;-78
2024/02/04 12:46:25;;;;;;;0.70;0.50;;;12.60;76.40;;;;;;6063522;23;20033;-75
2024/02/04 12:49:22;;;;;;;1.58;1.02;;;12.40;80.70;;;;;;6055261;23;20067;-77
2024/02/04 12:52:10;;;;;;;4.82;0.90;;;12.70;88.40;;;;;;6074087;23;20014;-76
2024/02/04 12:54:57;;;;;;;1.27;0.40;;;13.40;85.10;;;;;;6078023;23;20058;-77
2024/02/04 12:57:47;;;;;;;0.52;0.52;;;13.80;67.50;;;;;;6072967;23;20031;-78
2024/02/04 13:00:36;;;;;;;0.32;0.32;;;13.40;61.40;;;;;;6029855;23;20340;-79
2024/02/04 13:03:25;;;;;;;0.60;0.60;;;13.00;65.40;;;;;;6048181;23;20185;-75
2024/02/04 13:06:12;;;;;;;0.93;0.50;;;13.10;71.50;;;;;;6069464;23;20072;-79
2024/02/04 13:09:00;;;;;;;0.52;0.50;;;13.30;69.80;;;;;;6067249;23;20050;-77
2024/02/04 13:11:47;;;;;;;0.60;0.60;;;13.40;65.90;;;;;;6057614;23;20046;-79
2024/02/04 13:14:38;;;;;;;0.93;0.40;;;13.30;62.60;;;;;;6057725;23;20031;-77
2024/02/04 13:17:26;;;;;;;1.15;0.57;;;13.10;64.50;;;;;;6057544;23;20100;-79
2024/02/04 13:20:15;;;;;;;0.50;0.50;;;13.20;70.70;;;;;;6035377;23;20023;-77
2024/02/04 13:23:05;;;;;;;0.80;0.70;;;13.30;71.30;;;;;;6057622;23;20026;-78
2024/02/04 13:25:53;;;;;;;0.80;0.50;;;14.00;66.00;;;;;;6057312;23;20030;-78
2024/02/04 13:28:41;;;;;;;1.75;0.60;;;15.10;51.80;;;;;;6058704;23;20030;-78
2024/02/04 13:31:29;;;;;;;0.65;0.40;;;15.60;35.00;;;;;;6060901;23;20057;-78
2024/02/04 13:34:16;;;;;;;0.57;0.40;;;15.00;26.60;;;;;;6040177;23;20031;-77
2024/02/04 13:37:09;;;;;;;0.40;0.40;;;14.10;27.70;;;;;;6058200;23;20117;-77
2024/02/04 13:39:59;;;;;;;0.60;0.60;;;13.20;37.90;;;;;;6065630;23;20375;-75
2024/02/04 13:42:47;;;;;;;0.50;0.50;;;12.60;55.30;;;;;;6068574;23;20031;-78
2024/02/04 13:45:35;;;;;;;0.40;0.40;;;12.50;69.10;;;;;;6032953;23;20545;-78
2024/02/04 13:48:25;;;;;;;1.85;0.70;;;12.20;78.70;;;;;;6042822;23;20029;-76
2024/02/04 13:51:13;;;;;;;0.65;0.50;;;12.30;90.80;;;;;;6048252;23;20083;-77
2024/02/04 13:54:19;;;;;;;1.75;0.50;;;12.90;93.00;;;;;;6036348;23;20604;-78
2024/02/04 13:57:06;;;;;;;1.95;0.60;;;12.50;86.50;;;;;;6070945;23;20092;-78
2024/02/04 13:59:55;;;;;;;0.63;0.63;;;11.80;95.00;;;;;;6045710;23;20050;-78
2024/02/04 14:02:43;;;;;;;1.67;0.60;;;11.80;99.90;;;;;;6055622;23;20744;-77
2024/02/04 14:05:30;;;;;;;0.65;0.60;;;11.40;99.90;;;;;;6034574;23;20031;-78
2024/02/04 14:08:18;;;;;;;0.73;0.65;;;11.20;99.90;;;;;;6055818;23;20057;-76
2024/02/04 14:11:05;;;;;;;0.45;0.45;;;11.10;99.90;;;;;;6054860;23;20501;-76
2024/02/04 14:13:54;;;;;;;0.55;0.50;;;11.10;99.90;;;;;;6014681;23;20113;-77
2024/02/04 14:16:41;;;;;;;0.63;0.63;;;11.00;99.90;;;;;;6055205;23;20106;-78
2024/02/04 14:19:29;;;;;;;0.70;0.70;;;10.60;99.90;;;;;;6055143;23;20026;-79
2024/02/04 14:22:17;;;;;;;1.13;0.75;;;10.30;99.90;;;;;;6032833;23;20042;-77
2024/02/04 14:25:06;;;;;;;0.70;0.70;;;10.20;99.90;;;;;;6061579;23;20027;-77
2024/02/04 14:27:54;;;;;;;0.68;0.60;;;10.20;99.90;;;;;;6054467;23;20027;-79
2024/02/04 14:30:41;;;;;;;0.70;0.70;;;10.30;99.90;;;;;;6034691;23;20031;-80
2024/02/04 14:33:29;;;;;;;0.77;0.75;;;10.20;99.90;;;;;;6067188;23;20050;-77
2024/02/04 14:36:17;;;;;;;0.60;0.60;;;10.10;99.90;;;;;;6074962;23;20030;-77
2024/02/04 14:39:05;;;;;;;1.23;0.70;;;10.00;99.90;;;;;;6050601;23;20042;-77
2024/02/04 14:41:57;;;;;;;0.80;0.80;;;9.90;99.90;;;;;;6064998;23;20046;-79
2024/02/04 14:44:46;;;;;;;0.70;0.70;;;9.80;99.90;;;;;;6062747;23;20078;-77
2024/02/04 14:47:36;;;;;;;0.70;0.70;;;9.70;99.90;;;;;;6067485;23;20062;-77
2024/02/04 14:50:25;;;;;;;0.90;0.80;;;9.60;99.90;;;;;;6062804;23;20027;-78
2024/02/04 14:53:12;;;;;;;0.63;0.63;;;9.60;99.90;;;;;;6039943;23;20029;-77